Thunder radar more information blitzortung!


Löydät sääaseman tiedot myös:

European Weather Network

Finland Weather Exchange

Weather Underground

AWEKAS



Weather Underground säähistoriasivu

Päivittäin yhteenveto Kesäkuu 17, 2017 Yksiköt:  Metriset    Englantilaiset   Molemmat
« Edellinen Päivä
Seuraava Päivä »
Päivittäin Viikoittain Kuukausittain Vuosittain Mukautettu
  Korkea: Matala: Keskiarvo:
Lämpötila: -17.8 °C -12.9 °C -8.2 °C
Kastepiste: -17.8 °C -14.3 °C -12.1 °C
Kosteus: Humidity % 34 % 66 %
Tuulen nopeus: 0 km/h 0 km/h 5.1 km/h
Tuulenpuuska: 0 km/h - -
Tuuli:- - SSW
Ilmanpaine: 0 hPa 34144.4 hPa -
Sade: 0 mm    
Historical Graphs
 
 
Taulukkotiedot Kesäkuu 17, 2017
Aika Lämpötila Kastepiste Ilmanpaine Tuuli Tuulen nopeus Tuulenpuuska Kosteus Sademäärä (tunneittain)
-17.8 °C -17.8 °C 0 hPa Calm     Humidity % 0 mm
00:00 -9.3 °C -10.3 °C 34144.4 hPa Calm   5.1 km/h 89 % 0 mm
00:15 -9.5 °C -10.5 °C 34144.4 hPa Calm   2.6 km/h 89 % 0 mm
00:30 -9.7 °C -11 °C 34154.6 hPa Calm   7.7 km/h 86 % 0 mm
00:45 -9.8 °C -11.1 °C 34154.6 hPa Calm     87 % 0 mm
01:00 -10.2 °C -11.3 °C 34154.6 hPa Calm     87 % 0 mm
01:15 -10.4 °C -11.6 °C 34164.7 hPa Calm   5.1 km/h 87 % 0 mm
01:30 -10.5 °C -11.7 °C 34164.7 hPa Calm   2.6 km/h 87 % 0 mm
01:45 -10.7 °C -11.9 °C 34164.7 hPa Calm   5.1 km/h 87 % 0 mm
02:00 -10.9 °C -12.1 °C 34164.7 hPa Calm     87 % 0 mm
02:15 -11.2 °C -12.2 °C 34164.7 hPa Calm     88 % 0 mm
02:30 -11.3 °C -12.3 °C 34164.7 hPa Calm     89 % 0 mm
02:45 -11.5 °C -12.4 °C 34178.3 hPa Calm     90 % 0 mm
03:00 -11.7 °C -12.5 °C 34178.3 hPa Calm     91 % 0 mm
03:15 -12 °C -12.7 °C 34164.7 hPa Calm     92 % 0 mm
03:30 -12.2 °C -12.9 °C 34178.3 hPa Calm     92 % 0 mm
03:45 -12.3 °C -12.9 °C 34178.3 hPa Calm     93 % 0 mm
04:00 -12.4 °C -13.1 °C 34178.3 hPa Calm     93 % 0 mm
04:15 -12.7 °C -13.3 °C 34178.3 hPa Calm     93 % 0 mm
04:30 -12.9 °C -13.4 °C 34188.4 hPa Calm     93 % 0 mm
04:45 -12.9 °C -13.4 °C 34188.4 hPa Calm     94 % 0 mm
05:00 -12.9 °C -13.3 °C 34188.4 hPa Calm     95 % 0 mm
05:15 -12.7 °C -13.1 °C 34188.4 hPa Calm     95 % 0 mm
05:30 -12.7 °C -13.1 °C 34188.4 hPa Calm     95 % 0 mm
05:45 -12.4 °C -12.7 °C 34188.4 hPa Calm     96 % 0 mm
06:00 -12.1 °C -12.4 °C 34188.4 hPa Calm   2.6 km/h 96 % 0 mm
06:15 -11.8 °C -12.2 °C 34188.4 hPa Calm     95 % 0 mm
06:30 -11.5 °C -12.1 °C 34198.6 hPa Calm     94 % 0 mm
06:45 -11.4 °C -12.1 °C 34198.6 hPa Calm   7.7 km/h 92 % 0 mm
07:00 -11.3 °C -12.2 °C 34198.6 hPa Calm   2.6 km/h 91 % 0 mm
07:15 -10.9 °C -12.1 °C 34198.6 hPa Calm   10.3 km/h 87 % 0 mm
07:30 -10.4 °C -12.1 °C 34198.6 hPa SSW 2.6 km/h 12.9 km/h 82 % 0 mm
07:45 -10.1 °C -12 °C 34198.6 hPa SSW 2.6 km/h 10.3 km/h 80 % 0 mm
08:00 -9.8 °C -11.8 °C 34198.6 hPa SSE 2.6 km/h 10.3 km/h 79 % 0 mm
08:15 -9.3 °C -11.7 °C 34198.6 hPa SW 5.1 km/h 15.6 km/h 76 % 0 mm
08:30 -8.9 °C -11.6 °C 34198.6 hPa SSW 2.6 km/h 10.3 km/h 73 % 0 mm
08:45 -8.5 °C -11.4 °C 34198.6 hPa SW 2.6 km/h 12.9 km/h 71 % 0 mm
09:00 -8.2 °C -11.8 °C 34198.6 hPa SSW 5.1 km/h 18.2 km/h 65 % 0 mm
09:15 -7.8 °C -11.7 °C 34198.6 hPa SSW 5.1 km/h 15.6 km/h 64 % 0 mm
09:30 -7.6 °C -11.4 °C 34198.6 hPa SSW 5.1 km/h 20.8 km/h 64 % 0 mm
09:45 -7.3 °C -11.8 °C 34198.6 hPa SSW 2.6 km/h 15.6 km/h 59 % 0 mm
10:00 -7.1 °C -12.1 °C 34212.1 hPa SSW 5.1 km/h 15.6 km/h 56 % 0 mm
10:15 -6.8 °C -12.4 °C 34212.1 hPa SSW 7.7 km/h 20.8 km/h 52 % 0 mm
10:30 -6.7 °C -12.2 °C 34212.1 hPa SSW 7.7 km/h 23.3 km/h 53 % 0 mm
10:45 -6.6 °C -12.2 °C 34212.1 hPa SSW 7.7 km/h 23.3 km/h 52 % 0 mm
11:00 -6.2 °C -12.8 °C 34212.1 hPa SSW 5.1 km/h 25.9 km/h 47 % 0 mm
11:15 -6.2 °C -12.8 °C 34212.1 hPa SSW 12.9 km/h 25.9 km/h 47 % 0 mm
11:30 -5.9 °C -12.4 °C 34212.1 hPa SSW 7.7 km/h 28.5 km/h 47 % 0 mm
11:45 -5.8 °C -12.9 °C 34212.1 hPa SSW 7.7 km/h 20.8 km/h 44 % 0 mm
12:00 -5.7 °C -12.4 °C 34212.1 hPa SSW 7.7 km/h 23.3 km/h 46 % 0 mm
12:15 -5.4 °C -12.8 °C 34212.1 hPa SSW 7.7 km/h 25.9 km/h 43 % 0 mm
12:30 -5.5 °C -13.1 °C 34222.3 hPa SSW 10.3 km/h 23.3 km/h 42 % 0 mm
12:45 -5.4 °C -12.4 °C 34212.1 hPa SSW 5.1 km/h 18.2 km/h 45 % 0 mm
13:00 -5.6 °C -12.3 °C 34212.1 hPa SSW 7.7 km/h 25.9 km/h 46 % 0 mm
13:15 -5.5 °C -13 °C 34212.1 hPa SW 7.7 km/h 25.9 km/h 42 % 0 mm
13:30 -5.4 °C -13.2 °C 34212.1 hPa SSW 10.3 km/h 33.6 km/h 41 % 0 mm
13:45 -5.3 °C -14.3 °C 34212.1 hPa SSW 7.7 km/h 25.9 km/h 35 % 0 mm
14:00 -4.9 °C -14.3 °C 34212.1 hPa SW 5.1 km/h 18.2 km/h 34 % 0 mm
14:15 -5.1 °C -13.3 °C 34212.1 hPa SSW 7.7 km/h 25.9 km/h 39 % 0 mm
14:30 -4.9 °C -12.7 °C 34212.1 hPa SSW 7.7 km/h 25.9 km/h 41 % 0 mm
14:45 -5.2 °C -13.1 °C 34212.1 hPa SW 7.7 km/h 28.5 km/h 40 % 0 mm
15:00 -5.4 °C -12.3 °C 34212.1 hPa SSW 12.9 km/h 28.5 km/h 45 % 0 mm
15:15 -5.3 °C -12.7 °C 34212.1 hPa SW 10.3 km/h 31.1 km/h 43 % 0 mm
15:30 -5.3 °C -13.1 °C 34212.1 hPa SSW 10.3 km/h 28.5 km/h 41 % 0 mm
15:45 -5.3 °C -12.2 °C 34212.1 hPa SSW 12.9 km/h 38.8 km/h 45 % 0 mm
16:00 -5.1 °C -12.4 °C 34212.1 hPa SSW 10.3 km/h 31.1 km/h 43 % 0 mm
16:15 -5 °C -12 °C 34212.1 hPa SW 10.3 km/h 25.9 km/h 45 % 0 mm
16:30 -5.1 °C -13 °C 34212.1 hPa WSW 7.7 km/h 28.5 km/h 40 % 0 mm
16:45 -4.9 °C -12.5 °C 34212.1 hPa WSW 7.7 km/h 23.3 km/h 42 % 0 mm
17:00 -4.8 °C -12.4 °C 34212.1 hPa SSW 7.7 km/h 28.5 km/h 42 % 0 mm
17:15 -4.9 °C -12.3 °C 34212.1 hPa SSW 10.3 km/h 33.6 km/h 43 % 0 mm
17:30 -4.9 °C -11.7 °C 34212.1 hPa SW 7.7 km/h 23.3 km/h 46 % 0 mm
17:45 -5.2 °C -11.6 °C 34212.1 hPa SSW 10.3 km/h 31.1 km/h 48 % 0 mm
18:00 -5.6 °C -11.4 °C 34212.1 hPa SW 7.7 km/h 28.5 km/h 51 % 0 mm
18:15 -5.6 °C -11.2 °C 34212.1 hPa SSW 10.3 km/h 31.1 km/h 53 % 0 mm
18:30 -5.8 °C -11.2 °C 34212.1 hPa SSW 7.7 km/h 25.9 km/h 54 % 0 mm
18:45 -5.7 °C -11 °C 34212.1 hPa SW 5.1 km/h 20.8 km/h 55 % 0 mm
19:00 -6.1 °C -10.9 °C 34212.1 hPa SSW 10.3 km/h 23.3 km/h 57 % 0 mm
19:15 -6.1 °C -10.8 °C 34212.1 hPa SSW 7.7 km/h 25.9 km/h 58 % 0 mm
19:30 -6.2 °C -11 °C 34212.1 hPa SW 7.7 km/h 20.8 km/h 58 % 0 mm
19:45 -6.2 °C -10.8 °C 34212.1 hPa SW 10.3 km/h 33.6 km/h 59 % 0 mm
20:00 -6.3 °C -10.8 °C 34198.6 hPa SSW 7.7 km/h 31.1 km/h 60 % 0 mm
20:15 -6.4 °C -10.7 °C 34198.6 hPa SW 5.1 km/h 15.6 km/h 61 % 0 mm
20:30 -6.7 °C -10.7 °C 34198.6 hPa SSW 12.9 km/h 28.5 km/h 63 % 0 mm
20:45 -6.8 °C -10.7 °C 34198.6 hPa SSW 10.3 km/h 31.1 km/h 64 % 0 mm
21:00 -7 °C -10.6 °C 34198.6 hPa SSW 12.9 km/h 28.5 km/h 66 % 0 mm
21:15 -7.1 °C -10.6 °C 34198.6 hPa SSW 5.1 km/h 20.8 km/h 67 % 0 mm
21:30 -7.3 °C -10.6 °C 34198.6 hPa SSW 10.3 km/h 28.5 km/h 68 % 0 mm
21:45 -7.5 °C -10.7 °C 34198.6 hPa SSW 12.9 km/h 23.3 km/h 69 % 0 mm
22:00 -7.7 °C -10.7 °C 34198.6 hPa SSW 10.3 km/h 23.3 km/h 71 % 0 mm
22:15 -7.9 °C -10.7 °C 34198.6 hPa SSW 5.1 km/h 23.3 km/h 72 % 0 mm
22:30 -8.2 °C -10.7 °C 34198.6 hPa SSW 10.3 km/h 38.8 km/h 74 % 0 mm
22:45 -8.4 °C -10.7 °C 34198.6 hPa SSW 7.7 km/h 18.2 km/h 76 % 0 mm
23:00 -8.6 °C -10.8 °C 34198.6 hPa SSW 5.1 km/h 20.8 km/h 77 % 0 mm
23:15 -8.8 °C -10.8 °C 34198.6 hPa SW 5.1 km/h 15.6 km/h 79 % 0 mm
23:30 -9 °C -10.9 °C 34198.6 hPa SW 5.1 km/h 12.9 km/h 80 % 0 mm
23:45 -9.2 °C -11.1 °C 34198.6 hPa SW 5.1 km/h 15.6 km/h 81 % 0 mm
Esan sääasema
Terveisin Weather Underground - 2.75 mb

Alkuperäinen skripti  Jim McMurry - jmcmurry@mwt.net Sovitettu myös templatelle  Wim van der Kuil - Leuven-Template.eu

Laitteet joita käytämme:

Sääasema
Davis VP2

Sääasemaohjelma
Cumulus

Sääaseman tietokone
Asus EeePC

Palveluntarjoaja
Suncomet

Davis VP2

Cumulus

Asus EeePC

Suncomet